createdAt,value
2023-03-24T00:01:01.960Z,11.76
2023-03-24T00:03:45.929Z,11.79
2023-03-24T00:06:22.811Z,11.81
2023-03-24T00:08:53.154Z,11.84
2023-03-24T00:11:23.347Z,11.83
2023-03-24T00:14:00.164Z,11.84
2023-03-24T00:16:34.810Z,11.87
2023-03-24T00:19:07.024Z,11.87
2023-03-24T00:21:35.066Z,11.89
2023-03-24T00:24:04.470Z,11.91
2023-03-24T00:26:52.528Z,11.88
2023-03-24T00:29:26.600Z,11.87
2023-03-24T00:32:01.089Z,11.89
2023-03-24T00:34:29.084Z,11.85
2023-03-24T00:36:57.052Z,11.89
2023-03-24T00:39:43.693Z,11.87
2023-03-24T00:42:14.069Z,11.85
2023-03-24T00:44:42.040Z,11.88
2023-03-24T00:47:11.158Z,11.89
2023-03-24T00:49:45.892Z,11.88
2023-03-24T00:52:18.218Z,11.87
2023-03-24T00:54:46.331Z,11.83
2023-03-24T00:57:21.622Z,11.79
2023-03-24T00:59:50.266Z,11.80
2023-03-24T01:02:36.044Z,11.74
2023-03-24T01:05:11.076Z,11.76
2023-03-24T01:07:44.353Z,11.78
2023-03-24T01:10:15.601Z,11.75
2023-03-24T01:12:46.203Z,11.72
2023-03-24T01:15:17.297Z,11.69
2023-03-24T01:17:47.347Z,11.61
2023-03-24T01:20:17.430Z,11.59
2023-03-24T01:22:46.401Z,11.55
2023-03-24T01:25:16.949Z,11.54
2023-03-24T01:27:55.722Z,11.57
2023-03-24T01:30:28.103Z,11.50
2023-03-24T01:32:56.825Z,11.52
2023-03-24T01:35:29.591Z,11.51
2023-03-24T01:38:01.997Z,11.46
2023-03-24T01:40:34.560Z,11.45
2023-03-24T01:43:05.665Z,11.41
2023-03-24T01:46:00.848Z,11.45
2023-03-24T01:48:34.699Z,11.49
2023-03-24T01:51:09.800Z,11.52
2023-03-24T01:53:41.744Z,11.54
2023-03-24T01:56:11.465Z,11.57
2023-03-24T01:58:49.955Z,11.59
2023-03-24T02:01:38.205Z,11.58
2023-03-24T02:04:23.200Z,11.58
2023-03-24T02:07:15.079Z,11.60
2023-03-24T02:09:45.370Z,11.60
2023-03-24T02:12:13.718Z,11.61
2023-03-24T02:14:54.771Z,11.57
2023-03-24T02:17:43.611Z,11.54
2023-03-24T02:20:46.781Z,11.52
2023-03-24T02:23:59.020Z,11.51
2023-03-24T02:26:48.735Z,11.48
2023-03-24T02:29:44.212Z,11.47
2023-03-24T02:32:40.005Z,11.49
2023-03-24T02:35:29.323Z,11.47
2023-03-24T02:38:26.860Z,11.46
2023-03-24T02:41:18.084Z,11.43
2023-03-24T02:43:58.172Z,11.41
2023-03-24T02:46:34.879Z,11.46
2023-03-24T02:49:20.377Z,11.49
2023-03-24T02:51:54.632Z,11.52
2023-03-24T02:54:30.687Z,11.54
2023-03-24T02:57:06.979Z,11.55
2023-03-24T03:00:10.271Z,11.54
2023-03-24T03:03:16.433Z,11.56
2023-03-24T03:05:50.635Z,11.59
2023-03-24T03:08:32.523Z,11.62
2023-03-24T03:11:02.461Z,11.63
2023-03-24T03:13:36.442Z,11.65
2023-03-24T03:16:10.145Z,11.66
2023-03-24T03:18:43.428Z,11.67
2023-03-24T03:21:14.349Z,11.65
2023-03-24T03:23:47.560Z,11.67
2023-03-24T03:26:19.658Z,11.69
2023-03-24T03:28:58.274Z,11.69
2023-03-24T03:31:35.793Z,11.66
2023-03-24T03:34:10.850Z,11.67
2023-03-24T03:36:48.368Z,11.64
2023-03-24T03:39:26.801Z,11.63
2023-03-24T03:41:56.335Z,11.61
2023-03-24T03:44:28.225Z,11.61
2023-03-24T03:46:57.187Z,11.62
2023-03-24T03:49:36.487Z,11.61
2023-03-24T03:52:14.603Z,11.63
2023-03-24T03:54:49.046Z,11.57
2023-03-24T03:57:18.192Z,11.56
2023-03-24T04:00:20.047Z,11.55
2023-03-24T04:03:36.587Z,11.55
2023-03-24T04:06:37.409Z,11.56
2023-03-24T04:09:17.879Z,11.58
2023-03-24T04:12:01.850Z,11.55
2023-03-24T04:15:23.724Z,11.57
2023-03-24T04:18:33.490Z,11.56
2023-03-24T04:21:33.355Z,11.58
2023-03-24T04:24:14.791Z,11.61
2023-03-24T04:26:54.595Z,11.64
2023-03-24T04:29:33.433Z,11.62
2023-03-24T04:32:22.886Z,11.66
2023-03-24T04:35:01.239Z,11.66
2023-03-24T04:37:51.730Z,11.70
2023-03-24T04:40:34.435Z,11.71
2023-03-24T04:43:27.488Z,11.70
2023-03-24T04:45:58.625Z,11.75
2023-03-24T04:48:51.110Z,11.78
2023-03-24T04:51:29.156Z,11.79
2023-03-24T04:54:09.420Z,11.82
2023-03-24T04:56:47.605Z,11.83
2023-03-24T04:59:23.944Z,11.85
2023-03-24T05:01:52.117Z,11.88
2023-03-24T05:04:40.858Z,11.87
2023-03-24T05:07:27.220Z,11.89
2023-03-24T05:10:00.188Z,11.88
2023-03-24T05:12:28.604Z,11.89
2023-03-24T05:15:17.890Z,11.89
2023-03-24T05:17:47.979Z,11.88
2023-03-24T05:20:17.523Z,11.90
2023-03-24T05:22:52.230Z,11.88
2023-03-24T05:25:22.271Z,11.86
2023-03-24T05:27:50.909Z,11.88
2023-03-24T05:30:25.739Z,11.88
2023-03-24T05:33:01.303Z,11.87
2023-03-24T05:35:31.763Z,11.83
2023-03-24T05:38:00.462Z,11.83
2023-03-24T05:40:28.521Z,11.81
2023-03-24T05:43:12.832Z,11.81
2023-03-24T05:45:46.029Z,11.76
2023-03-24T05:48:24.048Z,11.76
2023-03-24T05:51:09.180Z,11.73
2023-03-24T05:53:37.038Z,11.73
2023-03-24T05:56:15.399Z,11.70
2023-03-24T05:59:04.407Z,11.69
2023-03-24T06:02:07.767Z,11.68
2023-03-24T06:04:49.518Z,11.67
2023-03-24T06:07:26.958Z,11.62
2023-03-24T06:10:02.925Z,11.60
2023-03-24T06:12:38.684Z,11.63
2023-03-24T06:15:07.814Z,11.63
2023-03-24T06:17:37.590Z,11.61
2023-03-24T06:20:19.021Z,11.60
2023-03-24T06:22:59.997Z,11.59
2023-03-24T06:25:33.714Z,11.63
2023-03-24T06:28:17.173Z,11.62
2023-03-24T06:30:49.209Z,11.62
2023-03-24T06:33:32.897Z,11.65
2023-03-24T06:36:01.992Z,11.73
2023-03-24T06:38:33.893Z,11.78
2023-03-24T06:41:03.827Z,11.79
2023-03-24T06:43:33.169Z,11.83
2023-03-24T06:46:02.486Z,11.85
2023-03-24T06:48:31.623Z,11.84
2023-03-24T06:51:04.773Z,11.81
2023-03-24T06:53:34.300Z,11.83
2023-03-24T06:56:02.339Z,11.85
2023-03-24T06:58:38.002Z,11.87
2023-03-24T07:01:08.334Z,11.82
2023-03-24T07:03:56.819Z,11.79
2023-03-24T07:06:40.444Z,11.71
2023-03-24T07:09:20.247Z,11.75
2023-03-24T07:11:48.178Z,11.69
2023-03-24T07:14:16.550Z,11.71
2023-03-24T07:16:46.616Z,11.70
2023-03-24T07:19:32.262Z,11.66
2023-03-24T07:22:19.018Z,11.57
2023-03-24T07:25:09.667Z,11.60
2023-03-24T07:27:49.235Z,11.58
2023-03-24T07:30:24.203Z,11.53
2023-03-24T07:32:57.272Z,11.53
2023-03-24T07:35:25.207Z,11.55
2023-03-24T07:37:53.079Z,11.59
2023-03-24T07:40:23.807Z,11.57
2023-03-24T07:42:52.672Z,11.53
2023-03-24T07:45:26.461Z,11.51
2023-03-24T07:47:57.381Z,11.57
2023-03-24T07:50:25.464Z,11.56
2023-03-24T07:52:53.756Z,11.55
2023-03-24T07:55:23.215Z,11.53
2023-03-24T07:58:18.325Z,11.53
2023-03-24T08:01:01.688Z,11.58
2023-03-24T08:03:40.855Z,11.57
2023-03-24T08:06:17.784Z,11.56
2023-03-24T08:08:53.246Z,11.55
2023-03-24T08:11:22.890Z,11.60
2023-03-24T08:13:50.765Z,11.56
2023-03-24T08:16:18.631Z,11.62
2023-03-24T08:18:48.730Z,11.63
2023-03-24T08:21:16.591Z,11.66
2023-03-24T08:23:45.468Z,11.66
2023-03-24T08:26:14.115Z,11.70
2023-03-24T08:28:43.825Z,11.71
2023-03-24T08:31:13.333Z,11.73
2023-03-24T08:33:42.028Z,11.71
2023-03-24T08:36:10.098Z,11.72
2023-03-24T08:38:39.082Z,11.71
2023-03-24T08:41:08.930Z,11.79
2023-03-24T08:43:38.357Z,11.87
2023-03-24T08:46:12.486Z,11.83
2023-03-24T08:48:43.206Z,11.95
2023-03-24T08:51:13.255Z,12.01
2023-03-24T08:53:42.374Z,12.04
2023-03-24T08:56:11.909Z,12.11
2023-03-24T08:58:39.847Z,12.11
2023-03-24T09:01:09.950Z,12.10
2023-03-24T09:03:39.916Z,12.16
2023-03-24T09:06:08.476Z,12.08
2023-03-24T09:08:36.295Z,12.17
2023-03-24T09:11:05.084Z,12.25
2023-03-24T09:13:33.320Z,12.35
2023-03-24T09:16:04.795Z,12.34
2023-03-24T09:18:34.402Z,12.26
2023-03-24T09:21:02.962Z,12.29
2023-03-24T09:23:31.878Z,12.33
2023-03-24T09:26:00.950Z,12.29
2023-03-24T09:28:29.492Z,12.29
2023-03-24T09:31:01.436Z,12.38
2023-03-24T09:33:30.656Z,12.50
2023-03-24T09:36:01.607Z,12.57
2023-03-24T09:38:29.849Z,12.66
2023-03-24T09:41:01.602Z,12.74
2023-03-24T09:43:37.460Z,12.76
2023-03-24T09:46:12.705Z,12.77
2023-03-24T09:48:44.937Z,12.79
2023-03-24T09:51:22.071Z,12.88
2023-03-24T09:53:57.267Z,12.97
2023-03-24T09:56:26.549Z,13.07
2023-03-24T09:59:03.927Z,13.20
2023-03-24T10:01:32.349Z,13.40
2023-03-24T10:04:01.220Z,13.44
2023-03-24T10:06:32.854Z,13.48
2023-03-24T10:09:13.346Z,13.53
2023-03-24T10:11:50.925Z,13.50
2023-03-24T10:14:28.813Z,13.55
2023-03-24T10:17:04.638Z,13.70
2023-03-24T10:19:41.516Z,13.72
2023-03-24T10:22:20.345Z,13.81
2023-03-24T10:24:56.328Z,13.83
2023-03-24T10:27:29.936Z,13.85
2023-03-24T10:30:04.584Z,13.83
2023-03-24T10:32:35.767Z,13.84
2023-03-24T10:35:10.053Z,13.90
2023-03-24T10:37:39.443Z,14.00
2023-03-24T10:40:16.480Z,14.13
2023-03-24T10:42:46.210Z,14.10
2023-03-24T10:45:16.195Z,14.13
2023-03-24T10:47:45.070Z,14.10
2023-03-24T10:50:14.897Z,14.06
2023-03-24T10:52:48.794Z,14.14
2023-03-24T10:55:19.187Z,14.14
2023-03-24T10:57:50.895Z,14.09
2023-03-24T11:00:24.648Z,14.06
2023-03-24T11:02:58.738Z,14.16
2023-03-24T11:05:33.360Z,14.24
2023-03-24T11:08:25.588Z,14.29
2023-03-24T11:10:53.521Z,14.24
2023-03-24T11:13:29.740Z,14.36
2023-03-24T11:16:05.833Z,14.33
2023-03-24T11:18:34.094Z,14.33
2023-03-24T11:21:04.968Z,14.37
2023-03-24T11:23:36.420Z,14.41
2023-03-24T11:26:10.730Z,14.53
2023-03-24T11:28:41.878Z,14.72
2023-03-24T11:31:11.847Z,14.58
2023-03-24T11:33:46.694Z,14.50
2023-03-24T11:36:44.739Z,14.30
2023-03-24T11:39:19.947Z,14.23
2023-03-24T11:42:05.364Z,14.25
2023-03-24T11:44:44.150Z,14.17
2023-03-24T11:47:17.833Z,14.17
2023-03-24T11:49:51.327Z,14.26
2023-03-24T11:52:24.330Z,14.33
2023-03-24T11:54:54.946Z,14.26
2023-03-24T11:57:39.125Z,13.96
2023-03-24T12:00:16.502Z,14.01
2023-03-24T12:03:01.911Z,13.94
2023-03-24T12:05:34.841Z,13.95
2023-03-24T12:08:25.106Z,13.95
2023-03-24T12:11:08.936Z,14.01
2023-03-24T12:13:40.487Z,13.98
2023-03-24T12:16:32.918Z,14.06
2023-03-24T12:19:30.662Z,13.94
2023-03-24T12:22:08.036Z,13.98
2023-03-24T12:24:51.565Z,14.05
2023-03-24T12:27:34.345Z,14.00
2023-03-24T12:30:07.453Z,13.98
2023-03-24T12:32:52.662Z,13.91
2023-03-24T12:35:49.933Z,13.93
2023-03-24T12:38:35.171Z,13.89
2023-03-24T12:41:36.798Z,13.87
2023-03-24T12:44:23.525Z,13.89
2023-03-24T12:47:02.955Z,13.86
2023-03-24T12:49:48.752Z,13.99
2023-03-24T12:52:58.026Z,14.01
2023-03-24T12:55:43.816Z,14.17
2023-03-24T12:58:18.852Z,14.16
2023-03-24T13:00:59.972Z,14.19
2023-03-24T13:03:33.124Z,14.07
2023-03-24T13:06:17.217Z,14.00
2023-03-24T13:08:55.474Z,13.91
2023-03-24T13:11:33.272Z,13.86
2023-03-24T13:14:06.338Z,13.81
2023-03-24T13:16:38.850Z,13.75
2023-03-24T13:19:15.647Z,13.71
2023-03-24T13:21:45.294Z,13.56
2023-03-24T13:24:15.526Z,13.55
2023-03-24T13:26:54.418Z,13.48
2023-03-24T13:29:41.720Z,13.47
2023-03-24T13:32:27.002Z,13.45
2023-03-24T13:34:59.130Z,13.42
2023-03-24T13:37:34.070Z,13.42
2023-03-24T13:40:07.757Z,13.41
2023-03-24T13:42:39.185Z,13.37
2023-03-24T13:45:09.010Z,13.31
2023-03-24T13:47:57.740Z,13.39
2023-03-24T13:50:27.160Z,13.39
2023-03-24T13:52:56.423Z,13.38
2023-03-24T13:55:28.806Z,13.42
2023-03-24T13:58:01.595Z,13.48
2023-03-24T14:00:30.670Z,13.53
2023-03-24T14:03:15.444Z,13.52
2023-03-24T14:05:59.344Z,13.48
2023-03-24T14:08:43.907Z,13.46
2023-03-24T14:11:49.464Z,13.45
2023-03-24T14:14:23.759Z,13.32
2023-03-24T14:16:54.176Z,13.21
2023-03-24T14:19:26.707Z,13.22
2023-03-24T14:22:00.142Z,13.19
2023-03-24T14:24:32.884Z,13.17
2023-03-24T14:27:01.105Z,13.09
2023-03-24T14:29:41.330Z,13.16
2023-03-24T14:32:20.579Z,13.19
2023-03-24T14:34:57.997Z,13.15
2023-03-24T14:37:27.266Z,13.07
2023-03-24T14:39:58.389Z,13.14
2023-03-24T14:42:57.301Z,13.17
2023-03-24T14:45:41.901Z,13.19
2023-03-24T14:48:29.930Z,13.10
2023-03-24T14:51:04.685Z,13.08
2023-03-24T14:53:37.356Z,13.06
2023-03-24T14:56:07.929Z,12.87
2023-03-24T14:58:39.148Z,12.66
2023-03-24T15:01:08.409Z,12.64
2023-03-24T15:03:45.986Z,12.55
2023-03-24T15:06:17.224Z,12.44
2023-03-24T15:08:51.320Z,12.33
2023-03-24T15:11:24.314Z,12.24
2023-03-24T15:13:53.373Z,12.12
2023-03-24T15:16:24.953Z,12.08
2023-03-24T15:19:01.512Z,12.05
2023-03-24T15:21:34.816Z,11.90
2023-03-24T15:24:04.265Z,11.87
2023-03-24T15:26:33.231Z,11.77
2023-03-24T15:29:03.916Z,11.67
2023-03-24T15:31:32.227Z,11.64
2023-03-24T15:34:08.674Z,11.63
2023-03-24T15:36:46.281Z,11.51
2023-03-24T15:39:19.781Z,11.66
2023-03-24T15:41:52.836Z,11.58
2023-03-24T15:44:23.142Z,11.48
2023-03-24T15:46:51.505Z,11.49
2023-03-24T15:49:25.907Z,11.39
2023-03-24T15:51:59.766Z,11.31
2023-03-24T15:54:30.995Z,11.43
2023-03-24T15:57:17.935Z,11.52
2023-03-24T15:59:49.014Z,11.56
2023-03-24T16:02:29.765Z,11.56
2023-03-24T16:05:10.751Z,11.60
2023-03-24T16:07:42.523Z,11.63
2023-03-24T16:10:32.575Z,11.64
2023-03-24T16:13:14.542Z,11.54
2023-03-24T16:15:44.051Z,11.62
2023-03-24T16:18:17.076Z,11.65
2023-03-24T16:20:45.217Z,11.64
2023-03-24T16:23:14.458Z,11.58
2023-03-24T16:25:42.533Z,11.61
2023-03-24T16:28:13.745Z,11.66
2023-03-24T16:30:43.990Z,11.67
2023-03-24T16:33:12.642Z,11.65
2023-03-24T16:35:40.809Z,11.65
2023-03-24T16:38:11.215Z,11.69
2023-03-24T16:40:45.045Z,11.62
2023-03-24T16:43:12.928Z,11.61
2023-03-24T16:45:40.945Z,11.59
2023-03-24T16:48:11.532Z,11.58
2023-03-24T16:50:40.949Z,11.57
2023-03-24T16:53:09.846Z,11.48
2023-03-24T16:55:38.839Z,11.46
2023-03-24T16:58:09.427Z,11.39
2023-03-24T17:00:38.427Z,11.34
2023-03-24T17:03:08.097Z,11.39
2023-03-24T17:05:40.484Z,11.35
2023-03-24T17:08:10.382Z,11.30
2023-03-24T17:10:38.521Z,11.23
2023-03-24T17:13:08.095Z,11.22
2023-03-24T17:15:37.302Z,11.17
2023-03-24T17:18:08.328Z,11.16
2023-03-24T17:20:39.687Z,11.13
2023-03-24T17:23:11.256Z,11.08
2023-03-24T17:25:40.287Z,11.05
2023-03-24T17:28:14.311Z,10.97
2023-03-24T17:30:42.647Z,10.94
2023-03-24T17:33:14.534Z,10.91
2023-03-24T17:35:44.785Z,10.93
2023-03-24T17:38:14.975Z,10.85
2023-03-24T17:40:43.625Z,10.86
2023-03-24T17:43:13.918Z,10.79
2023-03-24T17:45:42.071Z,10.76
2023-03-24T17:48:10.064Z,10.76
2023-03-24T17:50:38.111Z,10.62
2023-03-24T17:53:06.181Z,10.63
2023-03-24T17:55:34.658Z,10.51
2023-03-24T17:58:04.278Z,10.51
2023-03-24T18:00:35.427Z,10.47
2023-03-24T18:03:03.376Z,10.49
2023-03-24T18:05:31.298Z,10.47
2023-03-24T18:07:59.156Z,10.42
2023-03-24T18:10:27.051Z,10.34
2023-03-24T18:12:55.429Z,10.33
2023-03-24T18:15:25.645Z,10.30
2023-03-24T18:17:54.992Z,10.29
2023-03-24T18:20:23.576Z,10.19
2023-03-24T18:22:52.743Z,10.24
2023-03-24T18:25:21.073Z,10.21
2023-03-24T18:27:49.657Z,10.21
2023-03-24T18:30:17.852Z,10.16
2023-03-24T18:32:45.771Z,10.14
2023-03-24T18:35:17.196Z,10.16
2023-03-24T18:37:45.659Z,10.12
2023-03-24T18:40:15.621Z,10.14
2023-03-24T18:42:43.593Z,10.04
2023-03-24T18:45:17.323Z,10.06
2023-03-24T18:47:45.940Z,10.02
2023-03-24T18:50:16.064Z,10.00
2023-03-24T18:52:43.945Z,9.93
2023-03-24T18:55:12.044Z,9.97
2023-03-24T18:57:41.325Z,9.94
2023-03-24T19:00:12.122Z,9.96
2023-03-24T19:02:40.623Z,9.93
2023-03-24T19:05:10.157Z,9.86
2023-03-24T19:07:39.461Z,9.84
2023-03-24T19:10:08.737Z,9.81
2023-03-24T19:12:37.080Z,9.82
2023-03-24T19:15:07.141Z,9.80
2023-03-24T19:17:36.268Z,9.79
2023-03-24T19:20:07.346Z,9.74
2023-03-24T19:22:35.412Z,9.78
2023-03-24T19:25:06.147Z,9.74
2023-03-24T19:27:34.318Z,9.73
2023-03-24T19:30:04.906Z,9.73
2023-03-24T19:32:32.986Z,9.68
2023-03-24T19:35:01.335Z,9.67
2023-03-24T19:37:31.733Z,9.66
2023-03-24T19:40:00.159Z,9.65
2023-03-24T19:42:33.279Z,9.60
2023-03-24T19:45:01.881Z,9.57
2023-03-24T19:47:30.316Z,9.56
2023-03-24T19:49:58.416Z,9.55
2023-03-24T19:52:26.355Z,9.52
2023-03-24T19:54:54.610Z,9.50
2023-03-24T19:57:23.149Z,9.50
2023-03-24T19:59:52.636Z,9.49
2023-03-24T20:02:21.395Z,9.46
2023-03-24T20:04:49.601Z,9.47
2023-03-24T20:07:18.425Z,9.43
2023-03-24T20:09:46.482Z,9.46
2023-03-24T20:12:14.803Z,9.43
2023-03-24T20:14:43.521Z,9.41
2023-03-24T20:17:18.140Z,9.41
2023-03-24T20:19:46.678Z,9.39
2023-03-24T20:22:15.522Z,9.38
2023-03-24T20:24:44.600Z,9.40
2023-03-24T20:27:13.059Z,9.36
2023-03-24T20:29:41.787Z,9.34
2023-03-24T20:32:11.219Z,9.32
2023-03-24T20:34:40.739Z,9.32
2023-03-24T20:37:08.685Z,9.31
2023-03-24T20:39:36.874Z,9.27
2023-03-24T20:42:04.974Z,9.25
2023-03-24T20:44:32.888Z,9.26
2023-03-24T20:47:00.963Z,9.25
2023-03-24T20:49:29.076Z,9.22
2023-03-24T20:51:58.574Z,9.20
2023-03-24T20:54:26.677Z,9.21
2023-03-24T20:56:54.830Z,9.15
2023-03-24T20:59:23.068Z,9.10
2023-03-24T21:01:50.919Z,9.09
2023-03-24T21:04:19.826Z,9.00
2023-03-24T21:06:47.693Z,8.99
2023-03-24T21:09:16.990Z,9.00
2023-03-24T21:11:44.860Z,8.99
2023-03-24T21:14:13.508Z,8.99
2023-03-24T21:16:41.425Z,8.98
2023-03-24T21:19:10.335Z,8.92
2023-03-24T21:21:38.993Z,8.94
2023-03-24T21:24:07.195Z,8.98
2023-03-24T21:26:36.486Z,9.01
2023-03-24T21:29:04.360Z,9.00
2023-03-24T21:31:32.370Z,8.95
2023-03-24T21:34:00.351Z,8.97
2023-03-24T21:36:29.936Z,8.96
2023-03-24T21:38:58.567Z,8.91
2023-03-24T21:41:26.433Z,8.96
2023-03-24T21:43:55.820Z,8.91
2023-03-24T21:46:25.819Z,8.89
2023-03-24T21:48:59.381Z,8.88
2023-03-24T21:51:34.047Z,8.79
2023-03-24T21:54:04.642Z,8.82
2023-03-24T21:56:33.511Z,8.83
2023-03-24T21:59:03.328Z,8.82
2023-03-24T22:01:33.931Z,8.84
2023-03-24T22:04:03.429Z,8.83
2023-03-24T22:06:37.405Z,8.87
2023-03-24T22:09:08.214Z,8.83
2023-03-24T22:11:36.601Z,8.86
2023-03-24T22:14:05.784Z,8.81
2023-03-24T22:16:33.997Z,8.86
2023-03-24T22:19:02.453Z,8.83
2023-03-24T22:21:32.200Z,8.87
2023-03-24T22:24:00.147Z,8.88
2023-03-24T22:26:28.425Z,8.87
2023-03-24T22:28:57.174Z,8.89
2023-03-24T22:31:26.596Z,8.89
2023-03-24T22:33:54.583Z,8.97
2023-03-24T22:36:22.466Z,8.91
2023-03-24T22:38:50.393Z,8.92
2023-03-24T22:41:18.274Z,8.91
2023-03-24T22:43:46.174Z,8.84
2023-03-24T22:46:14.049Z,8.78
2023-03-24T22:48:43.299Z,8.83
2023-03-24T22:51:16.786Z,8.78
2023-03-24T22:53:44.742Z,8.71
2023-03-24T22:56:12.873Z,8.68
2023-03-24T22:58:41.576Z,8.68
2023-03-24T23:01:10.048Z,8.67
2023-03-24T23:03:37.981Z,8.67
2023-03-24T23:06:09.122Z,8.72
2023-03-24T23:08:38.492Z,8.67
2023-03-24T23:11:08.157Z,8.72
2023-03-24T23:13:36.389Z,8.72
2023-03-24T23:16:04.720Z,8.73
2023-03-24T23:18:33.075Z,8.68
2023-03-24T23:21:06.961Z,8.68
2023-03-24T23:23:37.369Z,8.65
2023-03-24T23:26:06.609Z,8.61
2023-03-24T23:28:35.415Z,8.58
2023-03-24T23:31:03.519Z,8.54
2023-03-24T23:33:31.415Z,8.57
2023-03-24T23:36:01.742Z,8.60
2023-03-24T23:38:29.706Z,8.54
2023-03-24T23:40:59.199Z,8.48
2023-03-24T23:43:27.531Z,8.42
2023-03-24T23:45:56.148Z,8.42
2023-03-24T23:48:24.182Z,8.36
2023-03-24T23:50:56.989Z,8.25
2023-03-24T23:53:24.940Z,8.15
2023-03-24T23:55:57.176Z,8.07
2023-03-24T23:58:29.138Z,8.00
